Time;durP1;ratioP1;P1;durP2;ratioP2;P2;SDS_P1;SDS_P2;PMS_P1;PMS_P2;Temp;Humidity;BMP_temperature;BMP_pressure;BME280_temperature;BME280_humidity;BME280_pressure;Samples;Min_cycle;Max_cycle;Signal;HPM_P1;HPM_P2
2021/08/19 00:00:28;;;;;;;;;;;17.70;99.90;;;;;;5074000;28;19976;-85
2021/08/19 00:02:55;;;;;;;;;;;17.70;99.90;;;;;;5073811;28;19917;-84
2021/08/19 00:05:20;;;;;;;;;;;17.70;99.90;;;;;;5074419;28;19940;-84
2021/08/19 00:07:46;;;;;;;;;;;17.60;99.90;;;;;;5075001;28;19923;-85
2021/08/19 00:10:12;;;;;;;;;;;17.80;99.90;;;;;;5074804;28;19931;-85
2021/08/19 00:12:38;;;;;;;;;;;17.70;99.90;;;;;;5055855;28;19917;-84
2021/08/19 00:15:04;;;;;;;;;;;17.70;99.90;;;;;;5078108;28;19915;-84
2021/08/19 00:17:29;;;;;;;;;;;17.70;99.90;;;;;;5077365;28;19901;-85
2021/08/19 00:19:55;;;;;;;;;;;17.70;99.90;;;;;;5077548;28;19971;-85
2021/08/19 00:22:20;;;;;;;;;;;17.70;99.90;;;;;;5061630;28;19919;-84
2021/08/19 00:24:46;;;;;;;;;;;17.60;99.90;;;;;;5060193;28;19920;-85
2021/08/19 00:27:11;;;;;;;;;;;17.70;99.90;;;;;;5074477;28;19913;-84
2021/08/19 00:29:37;;;;;;;;;;;17.70;99.90;;;;;;5073155;28;19900;-85
2021/08/19 00:32:03;;;;;;;;;;;17.60;99.90;;;;;;5068536;28;19909;-85
2021/08/19 00:34:28;;;;;;;;;;;17.70;99.90;;;;;;5096012;28;19917;-85
2021/08/19 00:36:54;;;;;;;;;;;17.70;99.90;;;;;;5090081;28;19901;-84
2021/08/19 00:39:19;;;;;;;;;;;17.70;99.90;;;;;;5059294;28;19923;-85
2021/08/19 00:41:45;;;;;;;;;;;17.70;99.90;;;;;;5077186;28;19944;-84
2021/08/19 00:44:10;;;;;;;;;;;17.70;99.90;;;;;;5060201;28;19913;-85
2021/08/19 00:46:37;;;;;;;;;;;17.70;99.90;;;;;;5078699;28;19916;-85
2021/08/19 00:49:03;;;;;;;;;;;17.70;99.90;;;;;;5092305;28;19911;-84
2021/08/19 00:51:31;;;;;;;;;;;17.60;99.90;;;;;;5075432;28;19963;-84
2021/08/19 00:53:57;;;;;;;;;;;17.60;99.90;;;;;;5076876;28;20335;-84
2021/08/19 00:56:22;;;;;;;;;;;17.60;99.90;;;;;;5076663;28;19928;-85
2021/08/19 00:58:48;;;;;;;;;;;17.70;99.90;;;;;;5075360;28;20261;-84
2021/08/19 01:01:13;;;;;;;;;;;17.60;99.90;;;;;;5073895;28;19913;-83
2021/08/19 01:03:39;;;;;;;;;;;17.60;99.90;;;;;;5075258;28;19912;-84
2021/08/19 01:06:05;;;;;;;;;;;17.70;99.90;;;;;;5075222;28;19916;-84
2021/08/19 01:08:33;;;;;;;;;;;17.60;99.90;;;;;;5074494;28;19912;-84
2021/08/19 01:10:58;;;;;;;;;;;17.70;99.90;;;;;;5074644;28;19909;-85
2021/08/19 01:13:23;;;;;;;;;;;17.60;99.90;;;;;;5073930;28;19923;-85
2021/08/19 01:15:49;;;;;;;;;;;17.60;99.90;;;;;;5056668;28;19920;-85
2021/08/19 01:18:14;;;;;;;;;;;17.60;99.90;;;;;;5057574;28;19938;-85
2021/08/19 01:20:40;;;;;;;;;;;17.50;99.90;;;;;;5072629;28;19913;-85
2021/08/19 01:23:06;;;;;;;;;;;17.60;99.90;;;;;;5075664;28;19926;-84
2021/08/19 01:25:32;;;;;;;;;;;17.70;99.90;;;;;;5072529;28;19907;-85
2021/08/19 01:27:57;;;;;;;;;;;17.60;99.90;;;;;;5073343;28;19948;-85
2021/08/19 01:30:24;;;;;;;;;;;17.60;99.90;;;;;;5055517;28;19940;-84
2021/08/19 01:32:50;;;;;;;;;;;17.60;99.90;;;;;;5074964;28;21384;-85
2021/08/19 01:35:19;;;;;;;;;;;17.60;99.90;;;;;;5072539;28;19913;-85
2021/08/19 01:37:45;;;;;;;;;;;17.60;99.90;;;;;;5071805;28;19912;-85
2021/08/19 01:40:10;;;;;;;;;;;17.60;99.90;;;;;;5073085;28;19916;-84
2021/08/19 01:42:36;;;;;;;;;;;17.60;99.90;;;;;;5072958;28;20402;-84
2021/08/19 01:45:01;;;;;;;;;;;17.60;99.90;;;;;;5072188;28;19947;-85
2021/08/19 01:47:29;;;;;;;;;;;17.70;99.90;;;;;;5071603;28;19912;-84
2021/08/19 01:49:54;;;;;;;;;;;17.60;99.90;;;;;;5072471;28;19909;-84
2021/08/19 01:52:19;;;;;;;;;;;17.60;99.90;;;;;;5072451;28;19919;-83
2021/08/19 01:54:45;;;;;;;;;;;17.60;99.90;;;;;;5071831;28;19923;-85
2021/08/19 01:57:10;;;;;;;;;;;17.60;99.90;;;;;;5074379;28;19933;-84
2021/08/19 01:59:36;;;;;;;;;;;17.60;99.90;;;;;;5054701;28;19920;-85
2021/08/19 02:02:02;;;;;;;;;;;17.60;99.90;;;;;;5073538;28;19909;-85
2021/08/19 02:04:28;;;;;;;;;;;17.60;99.90;;;;;;5072370;28;19919;-84
2021/08/19 02:06:53;;;;;;;;;;;17.60;99.90;;;;;;5073392;28;19919;-85
2021/08/19 02:09:19;;;;;;;;;;;17.60;99.90;;;;;;5071504;28;19912;-85
2021/08/19 02:11:44;;;;;;;;;;;17.60;99.90;;;;;;5072669;28;20347;-85
2021/08/19 02:14:11;;;;;;;;;;;17.60;99.90;;;;;;5071277;28;20153;-85
2021/08/19 02:16:36;;;;;;;;;;;17.60;99.90;;;;;;5071171;28;19935;-85
2021/08/19 02:19:02;;;;;;;;;;;17.50;99.90;;;;;;5071750;28;20388;-85
2021/08/19 02:21:28;;;;;;;;;;;17.60;99.90;;;;;;5072024;28;19913;-84
2021/08/19 02:23:53;;;;;;;;;;;17.60;99.90;;;;;;5074744;28;19943;-85
2021/08/19 02:26:19;;;;;;;;;;;17.60;99.90;;;;;;5071692;28;19909;-85
2021/08/19 02:28:44;;;;;;;;;;;17.60;99.90;;;;;;5070969;28;19913;-84
2021/08/19 02:31:09;;;;;;;;;;;17.50;99.90;;;;;;5072576;28;19951;-85
2021/08/19 02:33:35;;;;;;;;;;;17.60;99.90;;;;;;5052735;28;19916;-85
2021/08/19 02:36:00;;;;;;;;;;;17.60;99.90;;;;;;5053858;28;19987;-84
2021/08/19 02:38:26;;;;;;;;;;;17.50;99.90;;;;;;5052882;28;19965;-85
2021/08/19 02:40:51;;;;;;;;;;;17.50;99.90;;;;;;5071020;28;19939;-85
2021/08/19 02:43:17;;;;;;;;;;;17.50;99.90;;;;;;5069242;28;19913;-84
2021/08/19 02:45:42;;;;;;;;;;;17.50;99.90;;;;;;5069743;28;19939;-85
2021/08/19 02:48:08;;;;;;;;;;;17.50;99.90;;;;;;5069060;28;19904;-85
2021/08/19 02:50:33;;;;;;;;;;;17.50;99.90;;;;;;5070048;28;20466;-84
2021/08/19 02:52:59;;;;;;;;;;;17.50;99.90;;;;;;5070980;28;19921;-84
2021/08/19 02:55:25;;;;;;;;;;;17.50;99.90;;;;;;5075790;28;19902;-85
2021/08/19 02:57:50;;;;;;;;;;;17.50;99.90;;;;;;5054199;28;19897;-85
2021/08/19 03:00:16;;;;;;;;;;;17.50;99.90;;;;;;5071246;28;19979;-85
2021/08/19 03:02:41;;;;;;;;;;;17.50;99.90;;;;;;5053691;28;19912;-85
2021/08/19 03:05:07;;;;;;;;;;;17.50;99.90;;;;;;5070101;28;19948;-85
2021/08/19 03:07:33;;;;;;;;;;;17.50;99.90;;;;;;5071064;28;19951;-85
2021/08/19 03:09:59;;;;;;;;;;;17.40;99.90;;;;;;5070453;28;19913;-85
2021/08/19 03:12:24;;;;;;;;;;;17.50;99.90;;;;;;5069440;28;19924;-85
2021/08/19 03:14:50;;;;;;;;;;;17.60;99.90;;;;;;5070507;28;19923;-85
2021/08/19 03:17:15;;;;;;;;;;;17.50;99.90;;;;;;5069837;28;19989;-85
2021/08/19 03:19:41;;;;;;;;;;;17.40;99.90;;;;;;5070593;28;19909;-85
2021/08/19 03:22:07;;;;;;;;;;;17.50;99.90;;;;;;5069993;28;20081;-85
2021/08/19 03:24:34;;;;;;;;;;;17.40;99.90;;;;;;5071229;28;19923;-85
2021/08/19 03:26:59;;;;;;;;;;;17.40;99.90;;;;;;5071025;28;19919;-85
2021/08/19 03:29:25;;;;;;;;;;;17.50;99.90;;;;;;5069590;28;19913;-85
2021/08/19 03:31:50;;;;;;;;;;;17.50;99.90;;;;;;5070355;28;19920;-85
2021/08/19 03:34:16;;;;;;;;;;;17.40;99.90;;;;;;5070118;28;19916;-84
2021/08/19 03:36:42;;;;;;;;;;;17.40;99.90;;;;;;5069864;28;19948;-85
2021/08/19 03:39:07;;;;;;;;;;;17.40;99.90;;;;;;5070129;28;19975;-85
2021/08/19 03:41:33;;;;;;;;;;;17.40;99.90;;;;;;5070269;28;19928;-85
2021/08/19 03:43:59;;;;;;;;;;;17.40;99.90;;;;;;5070961;28;19948;-85
2021/08/19 03:46:24;;;;;;;;;;;17.40;99.90;;;;;;5068539;28;19901;-84
2021/08/19 03:48:50;;;;;;;;;;;17.40;99.90;;;;;;5070781;28;19999;-84
2021/08/19 03:51:15;;;;;;;;;;;17.40;99.90;;;;;;5069819;28;19916;-85
2021/08/19 03:53:41;;;;;;;;;;;17.40;99.90;;;;;;5070442;28;20395;-85
2021/08/19 03:56:07;;;;;;;;;;;17.40;99.90;;;;;;5070268;28;19909;-85
2021/08/19 03:58:33;;;;;;;;;;;17.40;99.90;;;;;;5070849;28;20300;-85
2021/08/19 04:01:00;;;;;;;;;;;17.40;99.90;;;;;;5070702;28;20028;-84
2021/08/19 04:03:25;;;;;;;;;;;17.40;99.90;;;;;;5070277;28;19912;-85
2021/08/19 04:05:51;;;;;;;;;;;17.40;99.90;;;;;;5075003;28;19919;-85
2021/08/19 04:08:16;;;;;;;;;;;17.40;99.90;;;;;;5055637;28;19920;-83
2021/08/19 04:10:42;;;;;;;;;;;17.40;99.90;;;;;;5073184;28;19921;-85
2021/08/19 04:13:07;;;;;;;;;;;17.40;99.90;;;;;;5055586;28;19924;-85
2021/08/19 04:15:33;;;;;;;;;;;17.40;99.90;;;;;;5061970;28;19913;-84
2021/08/19 04:17:58;;;;;;;;;;;17.40;99.90;;;;;;5073232;28;19913;-85
2021/08/19 04:20:24;;;;;;;;;;;17.30;99.90;;;;;;5055552;28;19969;-84
2021/08/19 04:22:49;;;;;;;;;;;17.30;99.90;;;;;;5055733;28;19913;-84
2021/08/19 04:25:15;;;;;;;;;;;17.30;99.90;;;;;;5073637;28;19913;-85
2021/08/19 04:27:40;;;;;;;;;;;17.30;99.90;;;;;;5056679;28;20449;-86
2021/08/19 04:30:07;;;;;;;;;;;17.30;99.90;;;;;;5056200;28;19913;-85
2021/08/19 04:32:32;;;;;;;;;;;17.30;99.90;;;;;;5073287;28;19932;-85
2021/08/19 04:34:58;;;;;;;;;;;17.30;99.90;;;;;;5073766;28;19912;-85
2021/08/19 04:37:23;;;;;;;;;;;17.30;99.90;;;;;;5054955;28;19920;-85
2021/08/19 04:39:49;;;;;;;;;;;17.40;99.90;;;;;;5073307;28;19917;-85
2021/08/19 04:42:14;;;;;;;;;;;17.30;99.90;;;;;;5066678;22;19929;-83
2021/08/19 04:44:40;;;;;;;;;;;17.30;99.90;;;;;;5025678;28;19917;-83
2021/08/19 04:47:05;;;;;;;;;;;17.30;99.90;;;;;;5020350;28;19977;-83
2021/08/19 04:49:31;;;;;;;;;;;17.30;99.90;;;;;;5037521;28;19917;-82
2021/08/19 04:51:56;;;;;;;;;;;17.30;99.90;;;;;;5041292;28;19937;-83
2021/08/19 04:54:22;;;;;;;;;;;17.30;99.90;;;;;;5025698;28;19922;-82
2021/08/19 04:56:47;;;;;;;;;;;17.40;99.90;;;;;;5022138;28;20294;-83
2021/08/19 04:59:13;;;;;;;;;;;17.40;99.90;;;;;;5033843;28;19917;-83
2021/08/19 05:01:41;;;;;;;;;;;17.40;99.90;;;;;;5015148;28;19964;-82
2021/08/19 05:04:07;;;;;;;;;;;17.40;99.90;;;;;;5027796;28;19920;-82
2021/08/19 05:06:33;;;;;;;;;;;17.40;99.90;;;;;;5021025;28;19909;-83
2021/08/19 05:09:00;;;;;;;;;;;17.40;99.90;;;;;;5025004;28;19920;-82
2021/08/19 05:11:26;;;;;;;;;;;17.50;99.90;;;;;;5024041;28;19996;-82
2021/08/19 05:13:52;;;;;;;;;;;17.40;99.90;;;;;;5008155;28;19918;-82
2021/08/19 05:16:17;;;;;;;;;;;17.40;99.90;;;;;;5019964;28;19919;-82
2021/08/19 05:18:43;;;;;;;;;;;17.40;99.90;;;;;;5003278;28;19921;-82
2021/08/19 05:21:09;;;;;;;;;;;17.40;99.90;;;;;;5019421;28;19914;-82
2021/08/19 05:23:35;;;;;;;;;;;17.40;99.90;;;;;;5023285;28;19960;-82
2021/08/19 05:26:00;;;;;;;;;;;17.40;99.90;;;;;;5020722;28;19909;-82
2021/08/19 05:28:26;;;;;;;;;;;17.40;99.90;;;;;;5021952;28;19909;-82
2021/08/19 05:30:51;;;;;;;;;;;17.40;99.90;;;;;;5002836;28;20378;-83
2021/08/19 05:33:17;;;;;;;;;;;17.40;99.90;;;;;;5021462;28;20300;-83
2021/08/19 05:35:42;;;;;;;;;;;17.40;99.90;;;;;;5006486;28;19929;-83
2021/08/19 05:38:08;;;;;;;;;;;17.50;99.90;;;;;;5019851;28;20384;-83
2021/08/19 05:40:33;;;;;;;;;;;17.50;99.90;;;;;;5021628;28;19960;-81
2021/08/19 05:42:59;;;;;;;;;;;17.50;99.90;;;;;;5022845;28;19948;-81
2021/08/19 05:45:24;;;;;;;;;;;17.60;99.90;;;;;;5021601;28;19913;-82
2021/08/19 05:47:50;;;;;;;;;;;17.60;99.90;;;;;;5023059;28;19953;-82
2021/08/19 05:50:15;;;;;;;;;;;17.60;99.90;;;;;;5024070;28;19917;-83
2021/08/19 05:52:42;;;;;;;;;;;17.70;99.90;;;;;;5021512;28;20000;-82
2021/08/19 05:55:08;;;;;;;;;;;17.70;99.90;;;;;;5022995;28;19924;-82
2021/08/19 05:57:33;;;;;;;;;;;17.70;99.90;;;;;;5022622;28;19921;-82
2021/08/19 05:59:59;;;;;;;;;;;17.70;99.90;;;;;;5023743;28;20047;-82
2021/08/19 06:02:24;;;;;;;;;;;17.70;99.90;;;;;;5022897;28;19917;-82
2021/08/19 06:04:49;;;;;;;;;;;17.70;99.90;;;;;;5031329;28;19966;-82
2021/08/19 06:07:15;;;;;;;;;;;17.70;99.90;;;;;;5025966;28;19917;-82
2021/08/19 06:09:40;;;;;;;;;;;17.70;99.90;;;;;;5025325;28;20016;-83
2021/08/19 06:12:06;;;;;;;;;;;17.80;99.90;;;;;;5040830;28;20024;-82
2021/08/19 06:14:32;;;;;;;;;;;17.80;99.90;;;;;;5029054;28;19917;-82
2021/08/19 06:16:57;;;;;;;;;;;17.70;99.90;;;;;;5038569;28;19924;-82
2021/08/19 06:19:22;;;;;;;;;;;17.70;99.90;;;;;;5020209;28;19920;-84
2021/08/19 06:21:48;;;;;;;;;;;17.80;99.90;;;;;;5025402;28;19961;-82
2021/08/19 06:24:14;;;;;;;;;;;18.00;99.90;;;;;;5021680;28;19909;-82
2021/08/19 06:26:40;;;;;;;;;;;18.10;99.90;;;;;;5032659;28;19971;-82
2021/08/19 06:29:05;;;;;;;;;;;18.30;99.90;;;;;;5020978;28;19969;-82
2021/08/19 06:31:31;;;;;;;;;;;18.40;99.90;;;;;;5021269;28;19914;-82
2021/08/19 06:33:56;;;;;;;;;;;18.50;99.90;;;;;;5020529;28;19921;-83
2021/08/19 06:36:22;;;;;;;;;;;18.60;99.90;;;;;;5023644;28;20428;-82
2021/08/19 06:38:52;;;;;;;;;;;18.50;99.90;;;;;;5019833;28;20352;-82
2021/08/19 06:41:18;;;;;;;;;;;18.50;99.90;;;;;;5028303;28;19919;-81
2021/08/19 06:43:43;;;;;;;;;;;18.50;99.90;;;;;;5027645;28;19986;-83
2021/08/19 06:46:09;;;;;;;;;;;18.40;99.90;;;;;;5020897;28;20041;-82
2021/08/19 06:48:34;;;;;;;;;;;18.40;99.90;;;;;;5022249;28;19916;-82
2021/08/19 06:50:59;;;;;;;;;;;18.40;99.90;;;;;;5022330;28;19942;-83
2021/08/19 06:53:25;;;;;;;;;;;18.40;99.90;;;;;;5024580;28;20333;-83
2021/08/19 06:55:50;;;;;;;;;;;18.50;99.90;;;;;;5021595;28;19913;-83
2021/08/19 06:58:16;;;;;;;;;;;18.50;99.90;;;;;;5014668;28;20016;-82
2021/08/19 07:00:42;;;;;;;;;;;18.50;99.90;;;;;;5014675;28;19921;-82
2021/08/19 07:03:07;;;;;;;;;;;18.60;99.90;;;;;;5004377;28;20000;-82
2021/08/19 07:05:33;;;;;;;;;;;18.60;99.90;;;;;;5011039;28;19920;-82
2021/08/19 07:08:00;;;;;;;;;;;18.60;99.90;;;;;;5010197;28;20436;-83
2021/08/19 07:10:25;;;;;;;;;;;18.60;99.90;;;;;;5019444;28;19914;-82
2021/08/19 07:12:50;;;;;;;;;;;18.70;99.90;;;;;;5018305;28;20004;-83
2021/08/19 07:15:16;;;;;;;;;;;18.80;99.90;;;;;;5020416;28;19914;-82
2021/08/19 07:17:41;;;;;;;;;;;19.00;99.90;;;;;;5024383;28;19957;-82
2021/08/19 07:20:07;;;;;;;;;;;19.00;99.90;;;;;;5018489;28;19913;-83
2021/08/19 07:22:33;;;;;;;;;;;19.10;99.90;;;;;;5006463;28;19914;-82
2021/08/19 07:24:58;;;;;;;;;;;19.20;99.90;;;;;;5012336;28;20381;-82
2021/08/19 07:27:24;;;;;;;;;;;19.20;99.90;;;;;;5015987;28;19914;-82
2021/08/19 07:29:49;;;;;;;;;;;19.20;99.90;;;;;;5018763;28;19917;-82
2021/08/19 07:32:19;;;;;;;;;;;19.20;99.90;;;;;;5018751;28;19936;-82
2021/08/19 07:34:44;;;;;;;;;;;19.20;99.90;;;;;;5015536;28;19917;-82
2021/08/19 07:37:10;;;;;;;;;;;19.20;99.90;;;;;;5012273;28;19914;-82
2021/08/19 07:39:36;;;;;;;;;;;19.20;99.90;;;;;;5010490;28;19913;-82
2021/08/19 07:42:01;;;;;;;;;;;19.30;99.90;;;;;;5021940;28;20075;-83
2021/08/19 07:44:27;;;;;;;;;;;19.20;99.90;;;;;;5024980;28;19913;-83
2021/08/19 07:46:52;;;;;;;;;;;19.20;99.90;;;;;;5025486;28;19917;-83
2021/08/19 07:49:20;;;;;;;;;;;19.20;99.90;;;;;;5038714;28;20016;-82
2021/08/19 07:51:46;;;;;;;;;;;19.30;99.90;;;;;;5027461;28;20019;-82
2021/08/19 07:54:12;;;;;;;;;;;19.50;99.90;;;;;;5015814;28;19917;-83
2021/08/19 07:56:37;;;;;;;;;;;19.60;99.90;;;;;;5025175;28;19921;-84
2021/08/19 07:59:03;;;;;;;;;;;19.60;99.90;;;;;;5020036;28;19921;-83
2021/08/19 08:01:28;;;;;;;;;;;19.60;99.90;;;;;;5018959;28;20469;-84
2021/08/19 08:03:54;;;;;;;;;;;19.60;99.90;;;;;;5018298;28;19914;-85
2021/08/19 08:06:19;;;;;;;;;;;19.60;99.90;;;;;;5016346;28;20345;-86
2021/08/19 08:08:45;;;;;;;;;;;19.50;99.90;;;;;;5015326;28;19965;-86
2021/08/19 08:11:10;;;;;;;;;;;19.50;99.90;;;;;;4998449;28;19981;-86
2021/08/19 08:13:36;;;;;;;;;;;19.70;99.90;;;;;;5018690;28;19917;-85
2021/08/19 08:16:01;;;;;;;;;;;19.90;99.90;;;;;;5024508;28;19998;-82
2021/08/19 08:18:27;;;;;;;;;;;20.10;99.90;;;;;;5024747;28;20000;-82
2021/08/19 08:20:54;;;;;;;;;;;20.40;99.90;;;;;;5022744;28;19914;-82
2021/08/19 08:23:20;;;;;;;;;;;21.00;99.90;;;;;;5024776;28;19933;-82
2021/08/19 08:25:46;;;;;;;;;;;21.40;99.90;;;;;;5024571;28;19948;-82
2021/08/19 08:28:14;;;;;;;;;;;21.50;99.90;;;;;;5025277;28;19909;-82
2021/08/19 08:30:41;;;;;;;;;;;21.50;99.90;;;;;;5023200;28;20021;-82
2021/08/19 08:33:07;;;;;;;;;;;21.60;99.90;;;;;;5004864;28;19984;-82
2021/08/19 08:35:36;;;;;;;;;;;21.70;99.90;;;;;;5024280;28;19963;-83
2021/08/19 08:38:05;;;;;;;;;;;21.60;99.90;;;;;;5024089;28;19914;-82
2021/08/19 08:40:32;;;;;;;;;;;21.50;99.90;;;;;;5009752;28;19914;-83
2021/08/19 08:42:58;;;;;;;;;;;21.40;99.90;;;;;;5022043;28;19917;-83
2021/08/19 08:45:24;;;;;;;;;;;21.20;99.90;;;;;;5022510;28;19941;-83
2021/08/19 08:47:50;;;;;;;;;;;21.30;99.90;;;;;;5019264;28;19951;-83
2021/08/19 08:50:16;;;;;;;;;;;21.50;99.90;;;;;;5019931;28;20301;-83
2021/08/19 08:52:42;;;;;;;;;;;22.00;99.90;;;;;;5020832;28;19952;-83
2021/08/19 08:55:08;;;;;;;;;;;22.00;99.90;;;;;;5023406;28;20013;-83
2021/08/19 08:57:35;;;;;;;;;;;21.80;99.90;;;;;;5023900;28;19910;-83
2021/08/19 09:00:00;;;;;;;;;;;21.80;99.90;;;;;;5040107;28;19913;-82
2021/08/19 09:02:26;;;;;;;;;;;22.10;99.90;;;;;;5043541;28;19932;-83
2021/08/19 09:05:11;;;;;;;;;;;22.30;99.90;;;;;;5024503;28;19913;-84
2021/08/19 09:07:36;;;;;;;;;;;22.80;99.90;;;;;;5044135;28;19909;-83
2021/08/19 09:10:02;;;;;;;;;;;22.90;99.90;;;;;;5027030;28;19914;-83
2021/08/19 09:12:27;;;;;;;;;;;22.80;99.90;;;;;;5023347;28;19960;-83
2021/08/19 09:14:54;;;;;;;;;;;22.60;99.90;;;;;;5007206;28;19925;-83
2021/08/19 09:17:39;;;;;;;;;;;22.60;99.90;;;;;;5023763;28;19937;-83
2021/08/19 09:20:05;;;;;;;;;;;22.70;99.90;;;;;;5037140;28;19924;-84
2021/08/19 09:22:50;;;;;;;;;;;23.00;99.90;;;;;;5024243;28;19913;-83
2021/08/19 09:25:26;;;;;;;;;;;23.00;99.90;;;;;;5040128;28;19939;-83
2021/08/19 09:28:26;;;;;;;;;;;22.80;99.90;;;;;;5042061;28;19920;-83
2021/08/19 09:31:05;;;;;;;;;;;22.60;99.90;;;;;;4958617;29;19915;-83
2021/08/19 09:33:32;;;;;;;;;;;22.50;99.90;;;;;;5000664;28;19918;-83
2021/08/19 09:35:58;;;;;;;;;;;22.40;99.90;;;;;;5017477;28;19916;-83
2021/08/19 09:38:26;;;;;;;;;;;22.30;99.90;;;;;;5022032;28;19917;-83
2021/08/19 09:41:00;;;;;;;;;;;22.20;99.90;;;;;;5033003;28;19983;-83
2021/08/19 09:43:44;;;;;;;;;;;22.10;99.90;;;;;;5041596;28;19939;-83
2021/08/19 09:46:11;;;;;;;;;;;22.20;99.90;;;;;;5039344;28;19917;-83
2021/08/19 09:48:36;;;;;;;;;;;22.50;99.90;;;;;;5033863;28;19913;-83
2021/08/19 09:51:14;;;;;;;;;;;22.80;99.90;;;;;;5003160;28;19910;-83
2021/08/19 09:53:40;;;;;;;;;;;22.90;99.90;;;;;;5027326;28;19921;-84
2021/08/19 09:56:09;;;;;;;;;;;22.90;99.90;;;;;;5041319;28;19956;-83
2021/08/19 09:58:34;;;;;;;;;;;22.80;99.90;;;;;;5036044;28;20361;-83
2021/08/19 10:01:00;;;;;;;;;;;22.60;99.90;;;;;;5020838;28;19921;-83
2021/08/19 10:03:26;;;;;;;;;;;22.40;99.90;;;;;;5024433;28;19920;-85
2021/08/19 10:05:52;;;;;;;;;;;22.30;99.90;;;;;;5033276;28;19973;-83
2021/08/19 10:08:17;;;;;;;;;;;22.10;99.90;;;;;;5012560;28;19913;-83
2021/08/19 10:10:44;;;;;;;;;;;22.00;99.90;;;;;;5041893;28;19916;-83
2021/08/19 10:13:11;;;;;;;;;;;21.80;99.90;;;;;;5039668;28;19981;-83
2021/08/19 10:15:39;;;;;;;;;;;21.60;99.90;;;;;;5007210;28;20285;-82
2021/08/19 10:18:06;;;;;;;;;;;21.50;99.90;;;;;;5023657;28;20365;-83
2021/08/19 10:20:34;;;;;;;;;;;21.50;99.90;;;;;;5021826;28;19913;-83
2021/08/19 10:23:01;;;;;;;;;;;21.70;99.90;;;;;;5022364;28;19919;-83
2021/08/19 10:25:27;;;;;;;;;;;22.00;99.90;;;;;;5009128;28;19914;-83
2021/08/19 10:28:11;;;;;;;;;;;22.00;99.90;;;;;;5042515;28;20416;-84
2021/08/19 10:30:44;;;;;;;;;;;22.50;99.90;;;;;;5040103;28;19920;-83
2021/08/19 10:33:09;;;;;;;;;;;22.70;99.90;;;;;;5001837;28;19914;-83
2021/08/19 10:35:35;;;;;;;;;;;22.70;99.90;;;;;;5023209;28;19981;-83
2021/08/19 10:38:01;;;;;;;;;;;22.40;99.90;;;;;;5036288;28;19921;-83
2021/08/19 10:40:31;;;;;;;;;;;22.30;99.90;;;;;;5029698;28;19913;-83
2021/08/19 10:43:13;;;;;;;;;;;22.20;99.90;;;;;;5039079;28;19924;-83
2021/08/19 10:45:39;;;;;;;;;;;23.00;99.90;;;;;;5008536;28;20569;-84
2021/08/19 10:48:04;;;;;;;;;;;24.30;99.90;;;;;;5032227;28;19914;-83
2021/08/19 10:50:31;;;;;;;;;;;24.40;99.90;;;;;;5020866;28;19913;-83
2021/08/19 10:53:07;;;;;;;;;;;24.00;99.90;;;;;;5028469;28;19913;-83
2021/08/19 10:55:38;;;;;;;;;;;23.40;99.90;;;;;;5033725;28;19974;-83
2021/08/19 10:58:20;;;;;;;;;;;22.90;99.90;;;;;;5034887;28;19913;-83
2021/08/19 11:00:45;;;;;;;;;;;22.80;99.90;;;;;;5040141;28;20015;-84
2021/08/19 11:03:30;;;;;;;;;;;23.30;99.90;;;;;;5024996;28;19950;-83
2021/08/19 11:05:56;;;;;;;;;;;23.50;99.90;;;;;;5022502;28;19914;-83
2021/08/19 11:08:35;;;;;;;;;;;23.30;99.90;;;;;;4994424;28;19921;-83
2021/08/19 11:11:00;;;;;;;;;;;23.00;99.90;;;;;;4997506;28;19913;-83
2021/08/19 11:13:27;;;;;;;;;;;23.10;99.90;;;;;;5041327;28;19936;-83
2021/08/19 11:15:53;;;;;;;;;;;23.80;99.90;;;;;;5030454;28;19913;-84
2021/08/19 11:18:28;;;;;;;;;;;25.10;99.90;;;;;;5034400;28;19921;-81
2021/08/19 11:20:54;;;;;;;;;;;27.60;99.90;;;;;;5042047;28;19987;-81
2021/08/19 11:23:26;;;;;;;;;;;28.40;99.90;;;;;;5044387;28;19913;-81
2021/08/19 11:25:51;;;;;;;;;;;27.90;99.90;;;;;;5014665;28;19957;-81
2021/08/19 11:28:18;;;;;;;;;;;27.50;99.90;;;;;;5029265;28;19917;-81
2021/08/19 11:30:47;;;;;;;;;;;27.10;99.90;;;;;;5043921;28;19932;-81
2021/08/19 11:33:13;;;;;;;;;;;26.70;99.90;;;;;;5043497;28;20004;-81
2021/08/19 11:35:39;;;;;;;;;;;26.30;99.90;;;;;;5044386;28;19948;-81
2021/08/19 11:38:12;;;;;;;;;;;25.70;99.90;;;;;;5041175;28;20626;-82
2021/08/19 11:40:38;;;;;;;;;;;25.30;99.90;;;;;;5043758;28;19909;-81
2021/08/19 11:43:22;;;;;;;;;;;25.10;99.90;;;;;;5023423;28;19941;-81
2021/08/19 11:45:48;;;;;;;;;;;25.00;99.90;;;;;;5043161;28;19913;-81
2021/08/19 11:48:17;;;;;;;;;;;25.00;99.90;;;;;;5042950;28;20381;-81
2021/08/19 11:50:42;;;;;;;;;;;25.20;99.90;;;;;;5028346;28;20305;-82
2021/08/19 11:53:08;;;;;;;;;;;25.40;99.90;;;;;;5025087;28;19913;-80
2021/08/19 11:55:34;;;;;;;;;;;25.50;99.90;;;;;;5032736;28;19976;-80
2021/08/19 11:58:18;;;;;;;;;;;25.50;99.90;;;;;;5042107;28;19951;-82
2021/08/19 12:00:57;;;;;;;;;;;25.20;99.90;;;;;;5023278;28;20372;-80
2021/08/19 12:03:23;;;;;;;;;;;24.90;99.90;;;;;;5024045;28;19921;-81
2021/08/19 12:06:02;;;;;;;;;;;24.80;99.90;;;;;;5007398;28;19918;-81
2021/08/19 12:08:28;;;;;;;;;;;24.70;99.90;;;;;;5039818;28;19935;-81
2021/08/19 12:10:55;;;;;;;;;;;24.50;99.90;;;;;;5042739;28;19996;-81
2021/08/19 12:13:21;;;;;;;;;;;24.40;99.90;;;;;;5010067;28;20042;-81
2021/08/19 12:15:46;;;;;;;;;;;24.30;99.90;;;;;;5037814;28;19909;-81
2021/08/19 12:18:12;;;;;;;;;;;24.50;99.90;;;;;;5031020;28;19920;-81
2021/08/19 12:20:38;;;;;;;;;;;24.80;99.90;;;;;;5028364;28;19963;-81
2021/08/19 12:23:21;;;;;;;;;;;25.40;99.90;;;;;;5044102;28;19909;-81
2021/08/19 12:25:46;;;;;;;;;;;26.10;99.90;;;;;;5030813;28;19913;-81
2021/08/19 12:28:12;;;;;;;;;;;27.40;99.90;;;;;;5032842;28;19971;-81
2021/08/19 12:30:59;;;;;;;;;;;28.20;99.90;;;;;;5023307;28;19913;-83
2021/08/19 12:33:42;;;;;;;;;;;28.90;99.90;;;;;;5022363;28;19918;-81
2021/08/19 12:36:08;;;;;;;;;;;28.80;99.90;;;;;;5043191;28;19959;-80
2021/08/19 12:38:33;;;;;;;;;;;28.30;99.90;;;;;;5044058;28;19909;-80
2021/08/19 12:41:09;;;;;;;;;;;28.30;99.70;;;;;;5041344;28;19926;-81
2021/08/19 12:43:34;;;;;;;;;;;29.20;98.20;;;;;;5043941;28;20415;-81
2021/08/19 12:46:10;;;;;;;;;;;29.50;96.30;;;;;;5027151;28;19941;-81
2021/08/19 12:48:36;;;;;;;;;;;30.10;95.10;;;;;;5023917;28;19917;-81
2021/08/19 12:51:17;;;;;;;;;;;30.30;93.60;;;;;;5024045;28;20301;-81
2021/08/19 12:54:02;;;;;;;;;;;30.20;92.50;;;;;;5024610;28;19984;-82
2021/08/19 12:56:28;;;;;;;;;;;29.90;91.30;;;;;;5023968;28;20396;-81
2021/08/19 12:58:53;;;;;;;;;;;29.50;90.90;;;;;;5029847;28;19913;-81
2021/08/19 13:01:19;;;;;;;;;;;29.20;90.20;;;;;;5043560;28;20270;-81
2021/08/19 13:03:44;;;;;;;;;;;28.90;89.20;;;;;;5024995;28;19913;-81
2021/08/19 13:06:09;;;;;;;;;;;29.10;88.40;;;;;;5022004;28;23852;-80
2021/08/19 13:08:35;;;;;;;;;;;29.40;88.00;;;;;;5040926;28;19913;-81
2021/08/19 13:11:00;;;;;;;;;;;29.40;86.10;;;;;;5042954;28;19972;-81
2021/08/19 13:13:26;;;;;;;;;;;29.10;84.60;;;;;;5023897;28;19925;-81
2021/08/19 13:15:51;;;;;;;;;;;28.50;83.60;;;;;;5024320;28;19913;-81
2021/08/19 13:18:17;;;;;;;;;;;27.90;83.20;;;;;;5023748;28;20373;-81
2021/08/19 13:20:43;;;;;;;;;;;27.10;82.90;;;;;;5026240;28;20000;-81
2021/08/19 13:23:08;;;;;;;;;;;26.40;84.20;;;;;;5031605;28;19909;-81
2021/08/19 13:25:34;;;;;;;;;;;26.00;85.40;;;;;;5029406;28;19924;-80
2021/08/19 13:27:59;;;;;;;;;;;25.80;86.30;;;;;;5023861;28;20004;-81
2021/08/19 13:30:25;;;;;;;;;;;25.70;86.90;;;;;;5041807;28;19909;-84
2021/08/19 13:32:51;;;;;;;;;;;25.50;86.90;;;;;;5042920;28;19909;-83
2021/08/19 13:35:16;;;;;;;;;;;25.40;87.30;;;;;;5024643;28;19917;-83
2021/08/19 13:37:43;;;;;;;;;;;25.20;87.30;;;;;;5022583;28;19963;-83
2021/08/19 13:40:09;;;;;;;;;;;25.00;87.50;;;;;;5040242;28;19917;-83
2021/08/19 13:42:34;;;;;;;;;;;25.00;88.20;;;;;;5030968;28;19925;-83
2021/08/19 13:44:59;;;;;;;;;;;25.10;88.70;;;;;;5038149;28;20479;-83
2021/08/19 13:47:25;;;;;;;;;;;25.00;88.90;;;;;;5043249;28;19955;-83
2021/08/19 13:49:50;;;;;;;;;;;25.00;89.40;;;;;;5041559;28;19917;-83
2021/08/19 13:52:16;;;;;;;;;;;25.10;89.60;;;;;;5035387;28;20198;-83
2021/08/19 13:54:41;;;;;;;;;;;25.20;89.70;;;;;;5023476;28;19913;-83
2021/08/19 13:57:07;;;;;;;;;;;25.10;89.70;;;;;;5028444;28;19920;-84
2021/08/19 13:59:35;;;;;;;;;;;25.40;90.10;;;;;;5024675;28;19913;-83
2021/08/19 14:02:02;;;;;;;;;;;26.10;89.80;;;;;;5029463;28;19913;-83
2021/08/19 14:04:27;;;;;;;;;;;26.50;89.70;;;;;;5043119;28;19916;-83
2021/08/19 14:06:53;;;;;;;;;;;26.70;89.50;;;;;;5041650;28;19913;-84
2021/08/19 14:09:18;;;;;;;;;;;26.70;89.30;;;;;;5024827;28;19913;-83
2021/08/19 14:11:43;;;;;;;;;;;26.50;89.00;;;;;;5031344;28;19914;-84
2021/08/19 14:14:09;;;;;;;;;;;26.40;88.80;;;;;;5021270;28;19953;-83